Terminal Aerodrome Forecast
Issued by NWS

Home | Current Version | Previous Version | Text Only | Print | Product List | Glossary On
Versions: 1 2 3 4 5 6 7 8 9 10 11 12 13 14 15 16
645
FTUS46 KMTR 210528
TAFOAK
TAF
KOAK 210528Z 2106/2212 VRB04KT P6SM SCT050 BKN100
     FM211200 13004KT P6SM VCSH SCT030 BKN050
     FM211800 09005KT P6SM SCT050 BKN100
     FM220200 29006KT P6SM SCT015 BKN100
     FM220600 VRB03KT P6SM BKN015=

USA.gov is the U.S. government's official web portal to all federal, state and local government web resources and services.